createdAt,value
2018-10-16T00:01:51.060Z,1.20
2018-10-16T00:04:27.758Z,1.47
2018-10-16T00:07:03.517Z,1.20
2018-10-16T00:09:39.732Z,1.40
2018-10-16T00:12:15.925Z,1.40
2018-10-16T00:14:52.166Z,1.27
2018-10-16T00:17:28.281Z,1.70
2018-10-16T00:20:04.108Z,1.40
2018-10-16T00:22:40.292Z,1.27
2018-10-16T00:25:19.938Z,1.20
2018-10-16T00:27:56.103Z,1.60
2018-10-16T00:30:32.087Z,1.20
2018-10-16T00:33:08.324Z,1.30
2018-10-16T00:35:44.107Z,1.40
2018-10-16T00:38:20.548Z,1.30
2018-10-16T00:40:56.870Z,1.17
2018-10-16T00:43:32.863Z,1.30
2018-10-16T00:46:09.296Z,1.20
2018-10-16T00:48:45.284Z,1.17
2018-10-16T00:51:21.128Z,1.27
2018-10-16T00:53:56.896Z,1.20
2018-10-16T00:56:32.520Z,1.10
2018-10-16T00:59:08.361Z,1.30
2018-10-16T01:04:10.241Z,1.20
2018-10-16T01:06:45.932Z,1.30
2018-10-16T01:09:22.999Z,1.37
2018-10-16T01:12:00.096Z,1.17
2018-10-16T01:14:36.121Z,1.10
2018-10-16T01:17:14.247Z,1.27
2018-10-16T01:19:55.386Z,1.10
2018-10-16T01:22:31.988Z,1.20
2018-10-16T01:25:10.311Z,1.00
2018-10-16T01:27:47.898Z,1.25
2018-10-16T01:30:24.692Z,1.07
2018-10-16T01:33:01.138Z,1.30
2018-10-16T01:35:37.659Z,1.40
2018-10-16T01:38:14.025Z,1.15
2018-10-16T01:40:50.131Z,1.20
2018-10-16T01:43:26.038Z,1.30
2018-10-16T01:46:02.333Z,1.20
2018-10-16T01:48:38.898Z,1.50
2018-10-16T01:51:15.584Z,1.20
2018-10-16T01:53:51.925Z,1.50
2018-10-16T01:56:27.907Z,1.40
2018-10-16T01:59:03.917Z,1.60
2018-10-16T02:01:40.137Z,1.67
2018-10-16T02:04:16.611Z,1.57
2018-10-16T02:06:52.844Z,1.85
2018-10-16T02:09:29.963Z,1.55
2018-10-16T02:12:06.139Z,1.90
2018-10-16T02:17:22.317Z,1.70
2018-10-16T02:19:58.349Z,2.00
2018-10-16T02:22:34.323Z,1.80
2018-10-16T02:25:12.509Z,2.00
2018-10-16T02:27:51.856Z,2.07
2018-10-16T02:30:27.787Z,2.00
2018-10-16T02:33:04.027Z,1.87
2018-10-16T02:35:40.913Z,1.80
2018-10-16T02:38:17.379Z,1.90
2018-10-16T02:40:53.326Z,1.85
2018-10-16T02:43:29.435Z,1.60
2018-10-16T02:46:05.430Z,1.90
2018-10-16T02:48:42.115Z,1.87
2018-10-16T02:51:18.534Z,1.98
2018-10-16T02:53:55.057Z,1.52
2018-10-16T02:56:31.168Z,1.60
2018-10-16T02:59:07.164Z,1.80
2018-10-16T03:01:44.008Z,1.80
2018-10-16T03:04:20.407Z,1.50
2018-10-16T03:06:56.508Z,1.70
2018-10-16T03:09:32.157Z,1.50
2018-10-16T03:12:08.500Z,1.70
2018-10-16T03:14:44.511Z,1.47
2018-10-16T03:17:20.335Z,1.50
2018-10-16T03:19:56.385Z,1.62
2018-10-16T03:22:32.523Z,1.52
2018-10-16T03:25:09.188Z,1.70
2018-10-16T03:27:45.345Z,1.43
2018-10-16T03:30:21.352Z,1.70
2018-10-16T03:32:57.581Z,1.50
2018-10-16T03:35:33.365Z,1.50
2018-10-16T03:38:09.172Z,1.30
2018-10-16T03:40:45.379Z,1.32
2018-10-16T03:43:23.904Z,1.50
2018-10-16T03:45:59.924Z,1.40
2018-10-16T03:48:36.139Z,1.40
2018-10-16T03:51:12.655Z,1.20
2018-10-16T03:53:49.125Z,1.42
2018-10-16T03:56:25.177Z,1.30
2018-10-16T03:59:02.627Z,1.35
2018-10-16T04:01:38.605Z,1.25
2018-10-16T04:04:14.949Z,1.33
2018-10-16T04:06:51.436Z,1.30
2018-10-16T04:09:27.971Z,1.50
2018-10-16T04:12:04.203Z,1.37
2018-10-16T04:14:40.366Z,1.20
2018-10-16T04:17:16.382Z,1.70
2018-10-16T04:19:52.405Z,1.40
2018-10-16T04:22:28.680Z,1.30
2018-10-16T04:25:05.201Z,1.32
2018-10-16T04:27:41.189Z,1.20
2018-10-16T04:30:17.211Z,1.40
2018-10-16T04:32:53.235Z,1.30
2018-10-16T04:35:29.195Z,1.20
2018-10-16T04:38:05.198Z,1.40
2018-10-16T04:40:42.359Z,1.00
2018-10-16T04:43:18.091Z,1.30
2018-10-16T04:45:54.197Z,1.20
2018-10-16T04:48:30.168Z,1.30
2018-10-16T04:51:06.156Z,1.32
2018-10-16T04:53:42.374Z,1.40
2018-10-16T04:56:18.432Z,1.10
2018-10-16T04:58:55.337Z,1.47
2018-10-16T05:01:32.614Z,1.47
2018-10-16T05:04:08.897Z,1.20
2018-10-16T05:06:45.206Z,1.10
2018-10-16T05:09:22.291Z,1.10
2018-10-16T05:11:58.804Z,1.00
2018-10-16T05:14:35.203Z,1.10
2018-10-16T05:17:11.083Z,1.40
2018-10-16T05:19:47.213Z,1.43
2018-10-16T05:22:23.593Z,1.55
2018-10-16T05:24:59.929Z,1.53
2018-10-16T05:27:36.152Z,1.67
2018-10-16T05:30:39.586Z,1.70
2018-10-16T05:33:15.384Z,1.63
2018-10-16T05:35:51.389Z,1.50
2018-10-16T05:38:28.389Z,1.67
2018-10-16T05:41:04.911Z,1.80
2018-10-16T05:43:40.900Z,1.70
2018-10-16T05:46:17.214Z,1.60
2018-10-16T05:48:53.054Z,1.70
2018-10-16T05:51:29.217Z,1.87
2018-10-16T05:54:05.052Z,1.80
2018-10-16T05:56:41.039Z,1.80
2018-10-16T05:59:17.201Z,1.90
2018-10-16T06:01:53.225Z,1.98
2018-10-16T06:04:29.087Z,1.65
2018-10-16T06:07:05.028Z,2.30
2018-10-16T06:09:41.917Z,2.10
2018-10-16T06:12:18.244Z,2.00
2018-10-16T06:14:54.418Z,1.70
2018-10-16T06:17:30.665Z,1.77
2018-10-16T06:20:06.582Z,1.77
2018-10-16T06:22:43.402Z,2.00
2018-10-16T06:25:19.230Z,2.00
2018-10-16T06:27:55.218Z,2.10
2018-10-16T06:30:31.239Z,2.00
2018-10-16T06:33:07.613Z,2.05
2018-10-16T06:35:43.852Z,2.00
2018-10-16T06:38:20.266Z,2.20
2018-10-16T06:40:56.368Z,2.35
2018-10-16T06:43:32.358Z,2.10
2018-10-16T06:46:08.409Z,1.80
2018-10-16T06:48:44.494Z,1.98
2018-10-16T06:51:20.405Z,2.20
2018-10-16T06:53:56.240Z,1.43
2018-10-16T06:56:32.240Z,1.35
2018-10-16T06:59:08.593Z,1.50
2018-10-16T07:01:44.578Z,1.33
2018-10-16T07:04:20.865Z,1.50
2018-10-16T07:06:56.663Z,1.40
2018-10-16T07:09:33.597Z,1.20
2018-10-16T07:12:10.370Z,1.40
2018-10-16T07:14:46.997Z,1.60
2018-10-16T07:17:22.884Z,1.35
2018-10-16T07:19:59.735Z,1.52
2018-10-16T07:24:12.054Z,1.50
2018-10-16T07:26:48.710Z,1.50
2018-10-16T07:29:24.410Z,1.40
2018-10-16T07:31:59.948Z,1.30
2018-10-16T07:34:36.161Z,1.40
2018-10-16T07:37:12.619Z,1.20
2018-10-16T07:39:48.244Z,1.40
2018-10-16T07:42:24.058Z,1.50
2018-10-16T07:45:00.078Z,1.50
2018-10-16T07:47:36.459Z,1.40
2018-10-16T07:50:14.864Z,1.40
2018-10-16T07:52:51.014Z,1.40
2018-10-16T07:55:27.288Z,1.10
2018-10-16T07:58:03.599Z,1.47
2018-10-16T08:00:39.894Z,1.20
2018-10-16T08:03:16.099Z,1.40
2018-10-16T08:05:52.010Z,1.20
2018-10-16T08:08:28.053Z,1.32
2018-10-16T08:11:04.247Z,1.03
2018-10-16T08:13:40.276Z,1.20
2018-10-16T08:16:16.246Z,1.32
2018-10-16T08:18:52.437Z,1.20
2018-10-16T08:21:28.245Z,1.20
2018-10-16T08:24:04.645Z,1.20
2018-10-16T08:26:40.634Z,1.17
2018-10-16T08:29:16.918Z,1.60
2018-10-16T08:31:53.383Z,1.20
2018-10-16T08:34:29.254Z,1.10
2018-10-16T08:37:05.241Z,1.20
2018-10-16T08:39:45.262Z,1.40
2018-10-16T08:42:39.965Z,1.20
2018-10-16T08:45:29.827Z,1.20
2018-10-16T08:48:19.919Z,1.20
2018-10-16T08:51:09.691Z,1.37
2018-10-16T08:53:46.091Z,1.22
2018-10-16T08:56:55.933Z,1.23
2018-10-16T08:59:32.625Z,1.22
2018-10-16T09:02:08.312Z,1.20
2018-10-16T09:04:44.096Z,1.20
2018-10-16T09:07:20.107Z,1.30
2018-10-16T09:09:56.457Z,1.40
2018-10-16T09:12:32.462Z,1.30
2018-10-16T09:15:09.034Z,1.10
2018-10-16T09:17:45.286Z,1.40
2018-10-16T09:20:21.461Z,1.30
2018-10-16T09:22:57.464Z,1.57
2018-10-16T09:25:33.476Z,1.40
2018-10-16T09:28:09.656Z,1.30
2018-10-16T09:30:46.109Z,1.35
2018-10-16T09:33:22.290Z,1.40
2018-10-16T09:35:58.485Z,1.27
2018-10-16T09:38:34.629Z,1.45
2018-10-16T09:41:10.925Z,1.10
2018-10-16T09:43:46.905Z,1.20
2018-10-16T09:46:22.906Z,1.40
2018-10-16T09:48:58.929Z,1.25
2018-10-16T09:51:35.145Z,1.20
2018-10-16T09:54:11.300Z,1.10
2018-10-16T09:56:47.305Z,1.00
2018-10-16T09:59:23.006Z,1.10
2018-10-16T10:01:59.361Z,1.20
2018-10-16T10:04:35.305Z,1.30
2018-10-16T10:07:11.789Z,1.32
2018-10-16T10:09:48.117Z,1.42
2018-10-16T10:12:24.270Z,1.30
2018-10-16T10:15:00.271Z,1.70
2018-10-16T10:17:36.254Z,1.20
2018-10-16T10:20:12.653Z,1.10
2018-10-16T10:22:48.645Z,1.40
2018-10-16T10:25:24.606Z,1.43
2018-10-16T10:28:01.277Z,1.10
2018-10-16T10:30:37.205Z,1.60
2018-10-16T10:33:13.310Z,1.33
2018-10-16T10:35:49.309Z,1.40
2018-10-16T10:38:25.514Z,1.27
2018-10-16T10:41:01.216Z,1.30
2018-10-16T10:43:37.525Z,1.37
2018-10-16T10:46:13.313Z,1.30
2018-10-16T10:48:49.550Z,1.20
2018-10-16T10:51:26.432Z,1.10
2018-10-16T10:54:02.315Z,1.30
2018-10-16T10:56:38.320Z,1.40
2018-10-16T10:59:14.295Z,1.55
2018-10-16T11:01:50.516Z,1.50
2018-10-16T11:04:26.506Z,1.30
2018-10-16T11:07:03.673Z,1.30
2018-10-16T11:09:40.075Z,1.30
2018-10-16T11:12:16.102Z,1.40
2018-10-16T11:14:52.513Z,1.45
2018-10-16T11:17:28.312Z,1.30
2018-10-16T11:20:04.318Z,1.40
2018-10-16T11:22:40.516Z,1.40
2018-10-16T11:25:16.322Z,1.40
2018-10-16T11:27:52.503Z,1.20
2018-10-16T11:30:28.320Z,1.10
2018-10-16T11:33:04.366Z,1.10
2018-10-16T11:35:41.515Z,1.20
2018-10-16T11:38:17.513Z,1.30
2018-10-16T11:40:53.512Z,1.13
2018-10-16T11:43:29.611Z,1.00
2018-10-16T11:46:05.310Z,1.32
2018-10-16T11:48:41.164Z,1.17
2018-10-16T11:51:17.338Z,1.17
2018-10-16T11:53:53.134Z,1.20
2018-10-16T11:56:28.964Z,1.10
2018-10-16T11:59:04.964Z,1.27
2018-10-16T12:01:40.564Z,1.20
2018-10-16T12:04:16.326Z,1.20
2018-10-16T12:06:52.568Z,1.20
2018-10-16T12:09:28.525Z,1.12
2018-10-16T12:12:04.727Z,1.20
2018-10-16T12:14:40.532Z,1.10
2018-10-16T12:17:20.906Z,1.20
2018-10-16T12:21:03.012Z,1.30
2018-10-16T12:23:39.167Z,1.00
2018-10-16T12:26:15.528Z,1.20
2018-10-16T12:28:51.583Z,1.10
2018-10-16T12:31:27.707Z,1.10
2018-10-16T12:34:03.970Z,1.37
2018-10-16T12:36:40.033Z,1.15
2018-10-16T12:39:16.388Z,1.02
2018-10-16T12:41:52.506Z,1.20
2018-10-16T12:44:28.353Z,1.20
2018-10-16T12:47:04.602Z,1.25
2018-10-16T12:49:40.548Z,1.20
2018-10-16T12:52:16.530Z,1.20
2018-10-16T12:54:52.364Z,1.10
2018-10-16T12:57:28.699Z,1.00
2018-10-16T13:00:05.227Z,1.35
2018-10-16T13:02:41.032Z,1.10
2018-10-16T13:05:17.239Z,1.20
2018-10-16T13:07:53.186Z,1.00
2018-10-16T13:10:29.425Z,1.30
2018-10-16T13:13:05.370Z,1.20
2018-10-16T13:15:41.569Z,1.30
2018-10-16T13:18:17.539Z,1.20
2018-10-16T13:20:53.367Z,1.10
2018-10-16T13:23:29.594Z,1.33
2018-10-16T13:26:06.117Z,1.07
2018-10-16T13:28:42.324Z,1.23
2018-10-16T13:31:18.556Z,1.33
2018-10-16T13:33:54.632Z,1.25
2018-10-16T13:36:30.608Z,1.10
2018-10-16T13:39:07.352Z,1.40
2018-10-16T13:41:43.557Z,1.20
2018-10-16T13:44:19.353Z,1.20
2018-10-16T13:46:55.344Z,1.10
2018-10-16T13:49:31.352Z,1.30
2018-10-16T13:52:07.405Z,1.30
2018-10-16T13:54:43.604Z,1.10
2018-10-16T13:57:19.387Z,1.27
2018-10-16T13:59:55.719Z,1.17
2018-10-16T14:02:31.841Z,1.30
2018-10-16T14:05:08.213Z,1.22
2018-10-16T14:07:44.573Z,1.20
2018-10-16T14:10:20.581Z,1.20
2018-10-16T14:12:58.068Z,1.63
2018-10-16T14:15:34.245Z,1.27
2018-10-16T14:18:10.384Z,1.30
2018-10-16T14:20:46.397Z,1.22
2018-10-16T14:23:22.596Z,1.30
2018-10-16T14:25:58.628Z,1.00
2018-10-16T14:28:34.163Z,1.00
2018-10-16T14:31:10.237Z,1.00
2018-10-16T14:33:46.491Z,0.90
2018-10-16T14:36:23.384Z,0.90
2018-10-16T14:38:59.392Z,1.00
2018-10-16T14:41:35.569Z,0.98
2018-10-16T14:44:11.951Z,1.00
2018-10-16T14:46:48.069Z,0.80
2018-10-16T14:49:24.342Z,0.70
2018-10-16T14:52:00.638Z,0.60
2018-10-16T14:54:36.582Z,0.70
2018-10-16T14:57:12.589Z,0.80
2018-10-16T14:59:48.784Z,0.83
2018-10-16T15:02:25.727Z,0.75
2018-10-16T15:05:02.819Z,0.70
2018-10-16T15:07:39.179Z,0.80
2018-10-16T15:10:15.610Z,0.80
2018-10-16T15:12:51.281Z,0.77
2018-10-16T15:15:27.189Z,0.70
2018-10-16T15:18:03.175Z,0.50
2018-10-16T15:20:39.604Z,0.70
2018-10-16T15:23:15.620Z,0.63
2018-10-16T15:25:51.588Z,0.53
2018-10-16T15:28:27.615Z,0.80
2018-10-16T15:31:03.525Z,0.50
2018-10-16T15:33:39.586Z,0.60
2018-10-16T15:36:15.693Z,0.57
2018-10-16T15:38:51.758Z,0.60
2018-10-16T15:41:27.626Z,0.60
2018-10-16T15:44:03.632Z,0.50
2018-10-16T15:46:41.161Z,0.60
2018-10-16T15:49:17.691Z,0.93
2018-10-16T15:51:54.377Z,0.60
2018-10-16T15:54:30.252Z,0.60
2018-10-16T15:57:06.545Z,0.68
2018-10-16T15:59:42.418Z,0.50
2018-10-16T16:02:18.403Z,0.60
2018-10-16T16:04:54.442Z,0.57
2018-10-16T16:07:30.437Z,0.60
2018-10-16T16:10:06.812Z,0.70
2018-10-16T16:12:43.492Z,1.30
2018-10-16T16:15:20.027Z,1.47
2018-10-16T16:17:56.293Z,1.27
2018-10-16T16:20:32.614Z,1.15
2018-10-16T16:23:08.641Z,1.40
2018-10-16T16:25:45.244Z,1.30
2018-10-16T16:28:21.600Z,1.60
2018-10-16T16:30:57.545Z,1.70
2018-10-16T16:33:33.603Z,1.57
2018-10-16T16:36:09.857Z,1.95
2018-10-16T16:38:46.275Z,1.82
2018-10-16T16:41:22.428Z,1.67
2018-10-16T16:43:58.965Z,1.92
2018-10-16T16:46:35.412Z,1.80
2018-10-16T16:49:11.450Z,1.72
2018-10-16T16:51:47.459Z,1.90
2018-10-16T16:54:23.921Z,1.72
2018-10-16T16:56:59.909Z,1.35
2018-10-16T16:59:36.219Z,1.90
2018-10-16T17:02:12.397Z,1.60
2018-10-16T17:04:48.768Z,1.70
2018-10-16T17:07:25.194Z,2.17
2018-10-16T17:10:01.503Z,1.47
2018-10-16T17:12:38.444Z,2.08
2018-10-16T17:15:17.368Z,1.60
2018-10-16T17:17:53.484Z,1.73
2018-10-16T17:20:29.443Z,1.77
2018-10-16T17:23:06.663Z,1.63
2018-10-16T17:25:43.041Z,1.50
2018-10-16T17:28:19.174Z,1.77
2018-10-16T17:30:55.445Z,1.55
2018-10-16T17:33:31.448Z,1.30
2018-10-16T17:36:07.444Z,1.60
2018-10-16T17:38:43.469Z,1.60
2018-10-16T17:41:19.434Z,1.60
2018-10-16T17:44:53.346Z,1.40
2018-10-16T17:47:30.167Z,1.40
2018-10-16T17:50:06.403Z,1.55
2018-10-16T17:52:42.814Z,1.40
2018-10-16T17:55:19.321Z,1.40
2018-10-16T17:57:55.718Z,1.25
2018-10-16T18:00:32.680Z,1.53
2018-10-16T18:03:09.238Z,1.47
2018-10-16T18:05:45.845Z,1.60
2018-10-16T18:08:22.325Z,1.50
2018-10-16T18:10:58.857Z,1.60
2018-10-16T18:13:34.644Z,1.70
2018-10-16T18:16:11.112Z,1.70
2018-10-16T18:18:47.291Z,1.80
2018-10-16T18:21:23.423Z,1.77
2018-10-16T18:25:49.459Z,1.60
2018-10-16T18:28:25.024Z,1.70
2018-10-16T18:31:00.473Z,1.70
2018-10-16T18:33:36.439Z,1.80
2018-10-16T18:36:12.686Z,1.83
2018-10-16T18:38:48.421Z,1.80
2018-10-16T18:41:24.186Z,1.65
2018-10-16T18:44:00.434Z,1.98
2018-10-16T18:46:36.309Z,2.20
2018-10-16T18:49:12.696Z,1.92
2018-10-16T18:51:48.651Z,1.80
2018-10-16T18:54:24.524Z,1.90
2018-10-16T18:57:00.425Z,1.70
2018-10-16T18:59:36.288Z,2.00
2018-10-16T19:02:12.485Z,1.70
2018-10-16T19:04:48.306Z,2.00
2018-10-16T19:07:24.825Z,1.73
2018-10-16T19:10:00.934Z,1.92
2018-10-16T19:12:37.613Z,1.80
2018-10-16T19:15:16.530Z,1.82
2018-10-16T19:17:53.042Z,1.70
2018-10-16T19:20:28.853Z,1.80
2018-10-16T19:23:05.114Z,1.60
2018-10-16T19:25:41.130Z,1.40
2018-10-16T19:28:17.127Z,1.60
2018-10-16T19:30:53.476Z,1.50
2018-10-16T19:33:29.654Z,1.50
2018-10-16T19:36:05.962Z,1.50
2018-10-16T19:38:42.435Z,1.50
2018-10-16T19:41:18.819Z,1.37
2018-10-16T19:43:54.972Z,1.50
2018-10-16T19:46:31.472Z,1.50
2018-10-16T19:49:08.661Z,1.20
2018-10-16T19:51:45.255Z,1.40
2018-10-16T19:54:21.488Z,1.40
2018-10-16T19:56:57.683Z,1.57
2018-10-16T19:59:34.068Z,1.50
2018-10-16T20:02:11.321Z,1.60
2018-10-16T20:04:47.788Z,1.30
2018-10-16T20:07:23.764Z,1.53
2018-10-16T20:09:59.789Z,1.50
2018-10-16T20:12:36.204Z,1.40
2018-10-16T20:15:14.478Z,1.30
2018-10-16T20:17:50.673Z,1.10
2018-10-16T20:20:27.933Z,1.13
2018-10-16T20:23:04.493Z,1.30
2018-10-16T20:25:41.156Z,1.30
2018-10-16T20:28:17.135Z,1.40
2018-10-16T20:30:53.325Z,1.40
2018-10-16T20:33:29.500Z,1.40
2018-10-16T20:36:05.489Z,1.40
2018-10-16T20:38:41.509Z,1.40
2018-10-16T20:41:17.408Z,1.30
2018-10-16T20:43:53.473Z,1.40
2018-10-16T20:46:29.498Z,1.40
2018-10-16T20:49:06.375Z,1.40
2018-10-16T20:51:42.839Z,1.00
2018-10-16T20:54:19.124Z,1.45
2018-10-16T20:56:55.390Z,1.22
2018-10-16T20:59:31.626Z,1.30
2018-10-16T21:02:07.687Z,1.10
2018-10-16T21:04:43.821Z,1.40
2018-10-16T21:07:19.765Z,1.10
2018-10-16T21:09:55.870Z,1.30
2018-10-16T21:12:32.198Z,1.30
2018-10-16T21:15:09.262Z,1.40
2018-10-16T21:17:45.874Z,1.47
2018-10-16T21:20:22.141Z,1.20
2018-10-16T21:22:57.950Z,1.57
2018-10-16T21:25:34.155Z,1.10
2018-10-16T21:28:11.277Z,1.47
2018-10-16T21:30:47.692Z,1.12
2018-10-16T21:33:23.517Z,1.40
2018-10-16T21:35:59.700Z,1.30
2018-10-16T21:38:35.893Z,1.27
2018-10-16T21:41:11.845Z,1.20
2018-10-16T21:43:48.497Z,1.20
2018-10-16T21:46:24.456Z,1.10
2018-10-16T21:49:00.509Z,1.30
2018-10-16T21:51:36.773Z,1.20
2018-10-16T21:54:12.853Z,1.30
2018-10-16T21:56:48.916Z,1.20
2018-10-16T21:59:25.683Z,1.20
2018-10-16T22:02:05.808Z,1.30
2018-10-16T22:04:43.003Z,1.10
2018-10-16T22:07:19.004Z,1.20
2018-10-16T22:09:54.954Z,1.00
2018-10-16T22:12:31.001Z,1.60
2018-10-16T22:15:07.253Z,1.20
2018-10-16T22:17:43.076Z,1.00
2018-10-16T22:20:19.065Z,1.00
2018-10-16T22:22:55.937Z,0.87
2018-10-16T22:25:32.440Z,1.05
2018-10-16T22:28:08.860Z,1.00
2018-10-16T22:30:45.252Z,0.98
2018-10-16T22:33:21.379Z,0.80
2018-10-16T22:35:57.270Z,1.13
2018-10-16T22:38:33.384Z,0.83
2018-10-16T22:41:09.896Z,1.00
2018-10-16T22:43:46.863Z,1.37
2018-10-16T22:46:23.031Z,0.90
2018-10-16T22:48:59.301Z,0.80
2018-10-16T22:51:35.271Z,1.00
2018-10-16T22:54:11.247Z,0.93
2018-10-16T22:56:48.056Z,0.90
2018-10-16T22:59:24.088Z,0.83
2018-10-16T23:02:00.525Z,1.00
2018-10-16T23:04:36.540Z,0.90
2018-10-16T23:07:12.928Z,0.70
2018-10-16T23:09:49.399Z,0.90
2018-10-16T23:12:25.181Z,0.90
2018-10-16T23:15:01.429Z,0.90
2018-10-16T23:17:37.540Z,0.90
2018-10-16T23:20:14.894Z,0.82
2018-10-16T23:22:51.079Z,0.90
2018-10-16T23:25:27.261Z,0.70
2018-10-16T23:28:03.432Z,0.80
2018-10-16T23:30:39.864Z,0.80
2018-10-16T23:33:16.273Z,0.90
2018-10-16T23:35:52.449Z,0.80
2018-10-16T23:38:28.457Z,0.80
2018-10-16T23:41:04.722Z,0.87
2018-10-16T23:46:15.502Z,0.80
2018-10-16T23:48:51.887Z,0.80
2018-10-16T23:51:28.263Z,0.70
2018-10-16T23:54:04.304Z,0.90
2018-10-16T23:56:40.907Z,1.00
2018-10-16T23:59:16.906Z,0.80
